sensor_id;sensor_type;location;lat;lon;timestamp;pressure;altitude;pressure_sealevel;temperature;humidity
76827;BME280;65788;52.284;20.890;2023-04-03T00:00:36;100977.77;;;18.53;39.91
76827;BME280;65788;52.284;20.890;2023-04-03T00:03:15;100978.52;;;18.54;39.84
76827;BME280;65788;52.284;20.890;2023-04-03T00:05:43;100983.02;;;18.53;39.81
76827;BME280;65788;52.284;20.890;2023-04-03T00:08:10;100984.23;;;18.50;39.83
76827;BME280;65788;52.284;20.890;2023-04-03T00:10:37;100988.70;;;18.47;39.87
76827;BME280;65788;52.284;20.890;2023-04-03T00:13:06;100990.88;;;18.49;39.81
76827;BME280;65788;52.284;20.890;2023-04-03T00:15:34;100989.74;;;18.45;39.82
76827;BME280;65788;52.284;20.890;2023-04-03T00:18:02;100985.62;;;18.46;39.77
76827;BME280;65788;52.284;20.890;2023-04-03T00:20:30;100991.81;;;18.47;39.72
76827;BME280;65788;52.284;20.890;2023-04-03T00:22:57;100989.94;;;18.47;39.69
76827;BME280;65788;52.284;20.890;2023-04-03T00:25:25;100993.27;;;18.43;39.75
76827;BME280;65788;52.284;20.890;2023-04-03T00:27:52;100995.81;;;18.46;39.62
76827;BME280;65788;52.284;20.890;2023-04-03T00:30:21;100999.34;;;18.43;39.68
76827;BME280;65788;52.284;20.890;2023-04-03T00:32:52;101002.53;;;18.44;39.58
76827;BME280;65788;52.284;20.890;2023-04-03T00:35:21;101002.66;;;18.44;39.61
76827;BME280;65788;52.284;20.890;2023-04-03T00:37:51;100999.20;;;18.43;39.57
76827;BME280;65788;52.284;20.890;2023-04-03T00:40:22;100998.24;;;18.40;39.58
76827;BME280;65788;52.284;20.890;2023-04-03T00:42:59;100999.33;;;18.42;39.52
76827;BME280;65788;52.284;20.890;2023-04-03T00:45:36;101000.84;;;18.41;39.49
76827;BME280;65788;52.284;20.890;2023-04-03T00:48:07;101001.37;;;18.40;39.49
76827;BME280;65788;52.284;20.890;2023-04-03T00:50:38;101000.80;;;18.35;39.54
76827;BME280;65788;52.284;20.890;2023-04-03T00:53:09;101003.03;;;18.35;39.50
76827;BME280;65788;52.284;20.890;2023-04-03T00:55:38;101003.02;;;18.34;39.48
76827;BME280;65788;52.284;20.890;2023-04-03T00:58:07;101002.21;;;18.35;39.45
76827;BME280;65788;52.284;20.890;2023-04-03T01:00:37;101009.95;;;18.34;39.42
76827;BME280;65788;52.284;20.890;2023-04-03T01:03:06;101009.17;;;18.31;39.44
76827;BME280;65788;52.284;20.890;2023-04-03T01:05:35;101008.56;;;18.30;39.43
76827;BME280;65788;52.284;20.890;2023-04-03T01:08:03;101010.95;;;18.30;39.39
76827;BME280;65788;52.284;20.890;2023-04-03T01:10:30;101015.59;;;18.30;39.35
76827;BME280;65788;52.284;20.890;2023-04-03T01:12:59;101018.14;;;18.29;39.37
76827;BME280;65788;52.284;20.890;2023-04-03T01:15:27;101021.77;;;18.28;39.33
76827;BME280;65788;52.284;20.890;2023-04-03T01:17:58;101023.11;;;18.26;39.32
76827;BME280;65788;52.284;20.890;2023-04-03T01:25:46;101036.08;;;18.28;39.22
76827;BME280;65788;52.284;20.890;2023-04-03T01:28:17;101041.54;;;18.28;39.17
76827;BME280;65788;52.284;20.890;2023-04-03T01:33:36;101048.75;;;18.24;39.16
76827;BME280;65788;52.284;20.890;2023-04-03T01:36:04;101049.77;;;18.23;39.14
76827;BME280;65788;52.284;20.890;2023-04-03T01:38:31;101050.52;;;18.23;39.12
76827;BME280;65788;52.284;20.890;2023-04-03T01:40:59;101051.45;;;18.20;39.11
76827;BME280;65788;52.284;20.890;2023-04-03T01:43:26;101057.14;;;18.19;39.12
76827;BME280;65788;52.284;20.890;2023-04-03T01:45:54;101055.97;;;18.21;39.04
76827;BME280;65788;52.284;20.890;2023-04-03T01:48:21;101059.11;;;18.19;39.04
76827;BME280;65788;52.284;20.890;2023-04-03T01:50:48;101058.16;;;18.20;39.01
76827;BME280;65788;52.284;20.890;2023-04-03T01:53:15;101057.98;;;18.18;39.01
76827;BME280;65788;52.284;20.890;2023-04-03T01:55:42;101058.96;;;18.18;38.96
76827;BME280;65788;52.284;20.890;2023-04-03T01:58:09;101058.52;;;18.16;38.98
76827;BME280;65788;52.284;20.890;2023-04-03T02:00:36;101063.15;;;18.14;38.98
76827;BME280;65788;52.284;20.890;2023-04-03T02:03:03;101062.67;;;18.13;38.97
76827;BME280;65788;52.284;20.890;2023-04-03T02:05:33;101066.65;;;18.16;38.86
76827;BME280;65788;52.284;20.890;2023-04-03T02:08:00;101064.89;;;18.13;38.90
76827;BME280;65788;52.284;20.890;2023-04-03T02:10:27;101076.74;;;18.10;38.93
76827;BME280;65788;52.284;20.890;2023-04-03T02:12:55;101075.98;;;18.11;38.88
76827;BME280;65788;52.284;20.890;2023-04-03T02:15:24;101074.40;;;18.11;38.84
76827;BME280;65788;52.284;20.890;2023-04-03T02:17:52;101079.19;;;18.07;38.89
76827;BME280;65788;52.284;20.890;2023-04-03T02:20:19;101082.88;;;18.10;38.83
76827;BME280;65788;52.284;20.890;2023-04-03T02:22:47;101085.27;;;18.10;38.75
76827;BME280;65788;52.284;20.890;2023-04-03T02:25:14;101083.95;;;18.10;38.72
76827;BME280;65788;52.284;20.890;2023-04-03T02:27:41;101086.72;;;18.07;38.75
76827;BME280;65788;52.284;20.890;2023-04-03T02:30:10;101088.26;;;18.06;38.71
76827;BME280;65788;52.284;20.890;2023-04-03T02:32:37;101089.40;;;18.02;38.78
76827;BME280;65788;52.284;20.890;2023-04-03T02:35:07;101089.86;;;18.02;38.75
76827;BME280;65788;52.284;20.890;2023-04-03T02:37:34;101090.11;;;17.99;38.76
76827;BME280;65788;52.284;20.890;2023-04-03T02:40:01;101091.78;;;18.02;38.70
76827;BME280;65788;52.284;20.890;2023-04-03T02:42:29;101092.84;;;18.01;38.68
76827;BME280;65788;52.284;20.890;2023-04-03T02:44:56;101094.11;;;18.01;38.65
76827;BME280;65788;52.284;20.890;2023-04-03T02:47:23;101098.08;;;18.00;38.63
76827;BME280;65788;52.284;20.890;2023-04-03T02:49:50;101102.01;;;18.00;38.60
76827;BME280;65788;52.284;20.890;2023-04-03T02:52:20;101105.99;;;17.99;38.59
76827;BME280;65788;52.284;20.890;2023-04-03T02:54:46;101101.56;;;17.99;38.57
76827;BME280;65788;52.284;20.890;2023-04-03T02:57:16;101104.05;;;17.97;38.55
76827;BME280;65788;52.284;20.890;2023-04-03T02:59:43;101106.83;;;17.94;38.59
76827;BME280;65788;52.284;20.890;2023-04-03T03:02:11;101109.28;;;17.94;38.58
76827;BME280;65788;52.284;20.890;2023-04-03T03:04:38;101104.52;;;17.94;38.54
76827;BME280;65788;52.284;20.890;2023-04-03T03:07:06;101107.33;;;17.91;38.67
76827;BME280;65788;52.284;20.890;2023-04-03T03:09:32;101108.05;;;17.93;38.67
76827;BME280;65788;52.284;20.890;2023-04-03T03:11:59;101110.09;;;17.93;38.67
76827;BME280;65788;52.284;20.890;2023-04-03T03:14:26;101106.27;;;17.89;38.77
76827;BME280;65788;52.284;20.890;2023-04-03T03:16:53;101108.17;;;17.91;38.87
76827;BME280;65788;52.284;20.890;2023-04-03T03:19:20;101106.51;;;17.88;39.07
76827;BME280;65788;52.284;20.890;2023-04-03T03:21:47;101105.19;;;17.88;39.18
76827;BME280;65788;52.284;20.890;2023-04-03T03:24:14;101105.05;;;17.90;39.20
76827;BME280;65788;52.284;20.890;2023-04-03T03:26:42;101109.76;;;17.90;39.30
76827;BME280;65788;52.284;20.890;2023-04-03T03:29:09;101113.35;;;17.87;39.40
76827;BME280;65788;52.284;20.890;2023-04-03T03:31:36;101112.08;;;17.86;39.49
76827;BME280;65788;52.284;20.890;2023-04-03T03:34:03;101114.52;;;17.84;39.60
76827;BME280;65788;52.284;20.890;2023-04-03T03:36:30;101114.95;;;17.88;39.55
76827;BME280;65788;52.284;20.890;2023-04-03T03:38:57;101115.48;;;17.87;39.58
76827;BME280;65788;52.284;20.890;2023-04-03T03:41:24;101113.11;;;17.84;39.65
76827;BME280;65788;52.284;20.890;2023-04-03T03:43:51;101112.84;;;17.83;39.70
76827;BME280;65788;52.284;20.890;2023-04-03T03:46:18;101116.80;;;17.87;39.62
76827;BME280;65788;52.284;20.890;2023-04-03T03:48:45;101114.88;;;17.86;39.62
76827;BME280;65788;52.284;20.890;2023-04-03T03:51:13;101117.80;;;17.85;39.66
76827;BME280;65788;52.284;20.890;2023-04-03T03:53:39;101114.88;;;17.86;39.64
76827;BME280;65788;52.284;20.890;2023-04-03T03:56:06;101116.04;;;17.87;39.62
76827;BME280;65788;52.284;20.890;2023-04-03T03:58:34;101114.81;;;17.86;39.62
76827;BME280;65788;52.284;20.890;2023-04-03T04:01:05;101112.65;;;17.92;39.54
76827;BME280;65788;52.284;20.890;2023-04-03T04:03:35;101113.50;;;17.97;39.44
76827;BME280;65788;52.284;20.890;2023-04-03T04:06:03;101115.45;;;18.06;39.31
76827;BME280;65788;52.284;20.890;2023-04-03T04:08:30;101119.61;;;18.20;39.06
76827;BME280;65788;52.284;20.890;2023-04-03T04:10:57;101119.77;;;18.29;38.94
76827;BME280;65788;52.284;20.890;2023-04-03T04:13:24;101123.15;;;18.40;38.76
76827;BME280;65788;52.284;20.890;2023-04-03T04:15:51;101119.63;;;18.46;38.70
76827;BME280;65788;52.284;20.890;2023-04-03T04:18:18;101124.35;;;18.54;38.56
76827;BME280;65788;52.284;20.890;2023-04-03T04:20:46;101122.56;;;18.59;38.47
76827;BME280;65788;52.284;20.890;2023-04-03T04:23:16;101123.73;;;18.61;38.43
76827;BME280;65788;52.284;20.890;2023-04-03T04:25:47;101127.82;;;18.65;38.37
76827;BME280;65788;52.284;20.890;2023-04-03T04:28:15;101128.12;;;18.70;38.27
76827;BME280;65788;52.284;20.890;2023-04-03T04:30:42;101134.39;;;18.76;38.18
76827;BME280;65788;52.284;20.890;2023-04-03T04:33:10;101131.23;;;18.78;38.15
76827;BME280;65788;52.284;20.890;2023-04-03T04:35:37;101133.36;;;18.80;38.14
76827;BME280;65788;52.284;20.890;2023-04-03T04:38:04;101143.41;;;18.84;38.02
76827;BME280;65788;52.284;20.890;2023-04-03T04:40:31;101141.58;;;18.88;37.90
76827;BME280;65788;52.284;20.890;2023-04-03T04:42:58;101146.10;;;18.96;37.88
76827;BME280;65788;52.284;20.890;2023-04-03T04:45:25;101150.00;;;18.98;37.89
76827;BME280;65788;52.284;20.890;2023-04-03T04:47:55;101155.82;;;18.99;37.80
76827;BME280;65788;52.284;20.890;2023-04-03T04:50:22;101153.38;;;19.04;37.69
76827;BME280;65788;52.284;20.890;2023-04-03T04:52:50;101156.55;;;19.05;37.65
76827;BME280;65788;52.284;20.890;2023-04-03T04:55:17;101160.73;;;19.05;37.58
76827;BME280;65788;52.284;20.890;2023-04-03T04:57:46;101160.61;;;19.12;37.46
76827;BME280;65788;52.284;20.890;2023-04-03T05:00:14;101162.18;;;19.18;37.33
76827;BME280;65788;52.284;20.890;2023-04-03T05:02:46;101166.83;;;19.23;37.23
76827;BME280;65788;52.284;20.890;2023-04-03T05:05:13;101169.98;;;19.28;37.10
76827;BME280;65788;52.284;20.890;2023-04-03T05:07:41;101173.10;;;19.34;37.07
76827;BME280;65788;52.284;20.890;2023-04-03T05:10:09;101169.38;;;19.41;37.11
76827;BME280;65788;52.284;20.890;2023-04-03T05:12:36;101173.89;;;19.46;37.08
76827;BME280;65788;52.284;20.890;2023-04-03T05:15:04;101175.30;;;19.55;36.89
76827;BME280;65788;52.284;20.890;2023-04-03T05:17:31;101174.95;;;19.66;36.67
76827;BME280;65788;52.284;20.890;2023-04-03T05:19:58;101178.80;;;19.78;36.45
76827;BME280;65788;52.284;20.890;2023-04-03T05:22:26;101177.04;;;19.98;36.12
76827;BME280;65788;52.284;20.890;2023-04-03T05:24:54;101179.09;;;21.29;33.79
76827;BME280;65788;52.284;20.890;2023-04-03T05:27:21;101183.69;;;22.37;31.73
76827;BME280;65788;52.284;20.890;2023-04-03T05:29:52;101184.21;;;21.72;32.62
76827;BME280;65788;52.284;20.890;2023-04-03T05:32:19;101189.11;;;20.45;34.85
76827;BME280;65788;52.284;20.890;2023-04-03T05:34:46;101190.86;;;20.18;35.46
76827;BME280;65788;52.284;20.890;2023-04-03T05:37:13;101189.09;;;20.09;35.63
76827;BME280;65788;52.284;20.890;2023-04-03T05:39:40;101193.94;;;20.03;35.73
76827;BME280;65788;52.284;20.890;2023-04-03T05:42:08;101196.83;;;19.95;35.87
76827;BME280;65788;52.284;20.890;2023-04-03T05:44:35;101199.69;;;19.89;35.97
76827;BME280;65788;52.284;20.890;2023-04-03T05:47:03;101207.36;;;19.90;35.97
76827;BME280;65788;52.284;20.890;2023-04-03T05:49:31;101210.16;;;19.88;35.97
76827;BME280;65788;52.284;20.890;2023-04-03T05:51:59;101211.36;;;19.92;35.90
76827;BME280;65788;52.284;20.890;2023-04-03T05:54:29;101210.15;;;19.94;35.87
76827;BME280;65788;52.284;20.890;2023-04-03T05:56:56;101210.58;;;19.95;35.85
76827;BME280;65788;52.284;20.890;2023-04-03T05:59:23;101209.65;;;19.98;35.84
76827;BME280;65788;52.284;20.890;2023-04-03T06:01:50;101215.48;;;20.01;35.81
76827;BME280;65788;52.284;20.890;2023-04-03T06:04:17;101213.27;;;20.06;35.71
76827;BME280;65788;52.284;20.890;2023-04-03T06:06:51;101213.11;;;20.08;35.71
76827;BME280;65788;52.284;20.890;2023-04-03T06:09:21;101208.67;;;20.09;35.70
76827;BME280;65788;52.284;20.890;2023-04-03T06:11:48;101216.72;;;20.12;35.68
76827;BME280;65788;52.284;20.890;2023-04-03T06:14:16;101215.83;;;20.15;35.63
76827;BME280;65788;52.284;20.890;2023-04-03T06:16:43;101219.59;;;20.16;35.62
76827;BME280;65788;52.284;20.890;2023-04-03T06:19:12;101219.02;;;20.18;35.63
76827;BME280;65788;52.284;20.890;2023-04-03T06:21:41;101223.42;;;20.22;35.57
76827;BME280;65788;52.284;20.890;2023-04-03T06:24:10;101227.83;;;20.24;35.54
76827;BME280;65788;52.284;20.890;2023-04-03T06:26:38;101227.59;;;20.26;35.53
76827;BME280;65788;52.284;20.890;2023-04-03T06:29:05;101231.47;;;20.24;35.66
76827;BME280;65788;52.284;20.890;2023-04-03T06:31:32;101233.15;;;20.27;35.66
76827;BME280;65788;52.284;20.890;2023-04-03T06:33:59;101237.55;;;20.24;35.75
76827;BME280;65788;52.284;20.890;2023-04-03T06:36:28;101243.79;;;20.24;35.91
76827;BME280;65788;52.284;20.890;2023-04-03T06:38:55;101246.39;;;20.25;35.99
76827;BME280;65788;52.284;20.890;2023-04-03T06:41:22;101251.05;;;20.25;36.15
76827;BME280;65788;52.284;20.890;2023-04-03T06:43:49;101245.84;;;20.25;36.29
76827;BME280;65788;52.284;20.890;2023-04-03T06:46:19;101243.36;;;20.25;36.38
76827;BME280;65788;52.284;20.890;2023-04-03T06:48:48;101244.98;;;20.26;36.44
76827;BME280;65788;52.284;20.890;2023-04-03T06:51:26;101244.05;;;20.28;36.38
76827;BME280;65788;52.284;20.890;2023-04-03T06:53:56;101248.55;;;20.29;36.34
76827;BME280;65788;52.284;20.890;2023-04-03T06:56:23;101248.94;;;20.32;36.28
76827;BME280;65788;52.284;20.890;2023-04-03T06:58:52;101252.20;;;20.34;36.21
76827;BME280;65788;52.284;20.890;2023-04-03T07:01:21;101254.16;;;20.33;36.13
76827;BME280;65788;52.284;20.890;2023-04-03T07:03:48;101262.30;;;20.36;36.01
76827;BME280;65788;52.284;20.890;2023-04-03T07:06:16;101262.56;;;20.37;35.97
76827;BME280;65788;52.284;20.890;2023-04-03T07:08:44;101269.07;;;20.38;35.91
76827;BME280;65788;52.284;20.890;2023-04-03T07:11:12;101263.27;;;20.43;35.77
76827;BME280;65788;52.284;20.890;2023-04-03T07:13:40;101270.07;;;20.43;35.68
76827;BME280;65788;52.284;20.890;2023-04-03T07:16:08;101269.40;;;20.46;35.55
76827;BME280;65788;52.284;20.890;2023-04-03T07:18:38;101276.33;;;20.48;35.42
76827;BME280;65788;52.284;20.890;2023-04-03T07:21:05;101273.79;;;20.54;36.14
76827;BME280;65788;52.284;20.890;2023-04-03T07:23:32;101271.08;;;20.71;36.85
76827;BME280;65788;52.284;20.890;2023-04-03T07:25:59;101274.23;;;20.81;36.37
76827;BME280;65788;52.284;20.890;2023-04-03T07:28:27;101274.78;;;20.82;36.02
76827;BME280;65788;52.284;20.890;2023-04-03T07:31:00;101277.66;;;20.84;35.74
76827;BME280;65788;52.284;20.890;2023-04-03T07:33:28;101277.48;;;20.91;35.57
76827;BME280;65788;52.284;20.890;2023-04-03T07:35:57;101279.26;;;20.97;35.30
76827;BME280;65788;52.284;20.890;2023-04-03T07:38:24;101283.20;;;21.02;35.09
76827;BME280;65788;52.284;20.890;2023-04-03T07:40:52;101276.88;;;21.15;35.10
76827;BME280;65788;52.284;20.890;2023-04-03T07:43:20;101277.64;;;21.39;35.43
76827;BME280;65788;52.284;20.890;2023-04-03T07:45:49;101279.70;;;21.39;35.20
76827;BME280;65788;52.284;20.890;2023-04-03T07:48:21;101280.55;;;21.37;35.05
76827;BME280;65788;52.284;20.890;2023-04-03T07:50:49;101286.67;;;21.44;35.02
76827;BME280;65788;52.284;20.890;2023-04-03T07:53:16;101280.98;;;21.48;34.69
76827;BME280;65788;52.284;20.890;2023-04-03T07:55:47;101287.42;;;21.51;34.82
76827;BME280;65788;52.284;20.890;2023-04-03T07:58:17;101283.50;;;21.56;34.54
76827;BME280;65788;52.284;20.890;2023-04-03T08:00:46;101280.39;;;21.49;34.50
76827;BME280;65788;52.284;20.890;2023-04-03T08:03:14;101276.84;;;21.53;34.41
76827;BME280;65788;52.284;20.890;2023-04-03T08:05:45;101276.59;;;21.61;34.42
76827;BME280;65788;52.284;20.890;2023-04-03T08:08:14;101279.67;;;21.57;34.20
76827;BME280;65788;52.284;20.890;2023-04-03T08:10:42;101275.89;;;21.71;33.64
76827;BME280;65788;52.284;20.890;2023-04-03T08:13:09;101279.57;;;21.72;33.70
76827;BME280;65788;52.284;20.890;2023-04-03T08:15:37;101281.23;;;21.80;33.15
76827;BME280;65788;52.284;20.890;2023-04-03T08:18:04;101283.96;;;21.85;33.16
76827;BME280;65788;52.284;20.890;2023-04-03T08:20:31;101281.17;;;21.89;33.04
76827;BME280;65788;52.284;20.890;2023-04-03T08:22:58;101280.48;;;21.87;33.11
76827;BME280;65788;52.284;20.890;2023-04-03T08:25:25;101284.68;;;21.89;33.23
76827;BME280;65788;52.284;20.890;2023-04-03T08:27:51;101283.73;;;21.89;32.95
76827;BME280;65788;52.284;20.890;2023-04-03T08:30:18;101288.02;;;21.91;33.09
76827;BME280;65788;52.284;20.890;2023-04-03T08:32:46;101285.35;;;21.92;32.93
76827;BME280;65788;52.284;20.890;2023-04-03T08:35:13;101282.21;;;21.96;32.91
76827;BME280;65788;52.284;20.890;2023-04-03T08:37:40;101288.88;;;21.88;32.87
76827;BME280;65788;52.284;20.890;2023-04-03T08:40:15;101292.05;;;21.93;33.05
76827;BME280;65788;52.284;20.890;2023-04-03T08:42:51;101290.45;;;22.01;32.60
76827;BME280;65788;52.284;20.890;2023-04-03T08:45:50;101288.02;;;22.03;32.54
76827;BME280;65788;52.284;20.890;2023-04-03T08:50:53;101291.40;;;22.12;32.35
76827;BME280;65788;52.284;20.890;2023-04-03T08:53:24;101288.55;;;22.14;32.28
76827;BME280;65788;52.284;20.890;2023-04-03T08:55:53;101287.16;;;22.19;32.35
76827;BME280;65788;52.284;20.890;2023-04-03T09:01:01;101290.73;;;22.28;32.14
76827;BME280;65788;52.284;20.890;2023-04-03T09:03:33;101291.50;;;22.30;32.52
76827;BME280;65788;52.284;20.890;2023-04-03T09:06:13;101294.23;;;22.37;32.10
76827;BME280;65788;52.284;20.890;2023-04-03T09:11:41;101289.00;;;22.33;32.08
76827;BME280;65788;52.284;20.890;2023-04-03T09:16:56;101296.47;;;22.34;31.93
76827;BME280;65788;52.284;20.890;2023-04-03T09:22:19;101287.23;;;22.44;31.80
76827;BME280;65788;52.284;20.890;2023-04-03T09:25:35;101291.59;;;22.44;31.78
76827;BME280;65788;52.284;20.890;2023-04-03T09:27:36;101292.08;;;22.42;31.83
76827;BME280;65788;52.284;20.890;2023-04-03T09:30:05;101287.36;;;22.50;31.69
76827;BME280;65788;52.284;20.890;2023-04-03T09:32:34;101289.61;;;22.52;31.67
76827;BME280;65788;52.284;20.890;2023-04-03T09:35:04;101286.39;;;22.54;31.74
76827;BME280;65788;52.284;20.890;2023-04-03T09:37:45;101291.41;;;22.54;31.56
76827;BME280;65788;52.284;20.890;2023-04-03T09:42:54;101302.29;;;22.61;31.52
76827;BME280;65788;52.284;20.890;2023-04-03T09:45:34;101300.73;;;22.56;31.46
76827;BME280;65788;52.284;20.890;2023-04-03T09:50:35;101287.05;;;22.61;31.36
76827;BME280;65788;52.284;20.890;2023-04-03T09:55:56;101291.63;;;22.72;31.38
76827;BME280;65788;52.284;20.890;2023-04-03T09:58:27;101295.89;;;22.79;31.03
76827;BME280;65788;52.284;20.890;2023-04-03T10:00:58;101297.29;;;22.80;31.03
76827;BME280;65788;52.284;20.890;2023-04-03T10:03:31;101297.91;;;22.71;31.17
76827;BME280;65788;52.284;20.890;2023-04-03T10:05:58;101294.63;;;22.78;31.10
76827;BME280;65788;52.284;20.890;2023-04-03T10:08:32;101293.55;;;22.80;31.35
76827;BME280;65788;52.284;20.890;2023-04-03T10:11:25;101305.26;;;22.66;31.25
76827;BME280;65788;52.284;20.890;2023-04-03T10:13:57;101299.57;;;22.62;31.59
76827;BME280;65788;52.284;20.890;2023-04-03T10:16:36;101294.67;;;22.65;31.06
76827;BME280;65788;52.284;20.890;2023-04-03T10:19:36;101305.05;;;22.63;31.11
76827;BME280;65788;52.284;20.890;2023-04-03T10:24:48;101302.79;;;22.39;31.32
76827;BME280;65788;52.284;20.890;2023-04-03T10:43:34;101297.63;;;22.34;32.96
76827;BME280;65788;52.284;20.890;2023-04-03T10:46:13;101291.40;;;22.39;31.61
76827;BME280;65788;52.284;20.890;2023-04-03T10:49:08;101293.75;;;22.41;30.82
76827;BME280;65788;52.284;20.890;2023-04-03T10:54:24;101287.63;;;22.31;31.01
76827;BME280;65788;52.284;20.890;2023-04-03T10:56:56;101282.71;;;22.41;30.86
76827;BME280;65788;52.284;20.890;2023-04-03T10:59:33;101284.13;;;22.54;30.68
76827;BME280;65788;52.284;20.890;2023-04-03T11:02:35;101280.85;;;22.63;30.54
76827;BME280;65788;52.284;20.890;2023-04-03T11:05:08;101284.04;;;22.46;30.73
76827;BME280;65788;52.284;20.890;2023-04-03T11:07:52;101284.85;;;22.43;30.76
76827;BME280;65788;52.284;20.890;2023-04-03T11:10:32;101281.33;;;22.34;30.81
76827;BME280;65788;52.284;20.890;2023-04-03T11:13:17;101284.48;;;22.26;31.03
76827;BME280;65788;52.284;20.890;2023-04-03T11:15:46;101292.88;;;22.30;30.90
76827;BME280;65788;52.284;20.890;2023-04-03T11:18:17;101281.36;;;22.42;31.10
76827;BME280;65788;52.284;20.890;2023-04-03T11:21:18;101277.73;;;22.46;30.72
76827;BME280;65788;52.284;20.890;2023-04-03T11:23:43;101273.23;;;22.44;30.71
76827;BME280;65788;52.284;20.890;2023-04-03T11:26:20;101272.46;;;22.45;30.62
76827;BME280;65788;52.284;20.890;2023-04-03T11:29:04;101264.95;;;22.52;30.40
76827;BME280;65788;52.284;20.890;2023-04-03T11:32:02;101264.65;;;22.61;30.66
76827;BME280;65788;52.284;20.890;2023-04-03T11:34:41;101266.19;;;22.55;30.56
76827;BME280;65788;52.284;20.890;2023-04-03T11:39:54;101267.13;;;22.53;30.36
76827;BME280;65788;52.284;20.890;2023-04-03T11:42:40;101266.43;;;22.48;30.42
76827;BME280;65788;52.284;20.890;2023-04-03T11:45:17;101262.79;;;22.49;30.45
76827;BME280;65788;52.284;20.890;2023-04-03T11:50:40;101258.00;;;22.53;30.42
76827;BME280;65788;52.284;20.890;2023-04-03T11:55:55;101258.99;;;22.43;30.44
76827;BME280;65788;52.284;20.890;2023-04-03T11:58:25;101255.89;;;22.52;30.17
76827;BME280;65788;52.284;20.890;2023-04-03T12:00:55;101256.61;;;22.55;30.64
76827;BME280;65788;52.284;20.890;2023-04-03T12:21:21;101261.55;;;22.13;30.68
76827;BME280;65788;52.284;20.890;2023-04-03T12:26:48;101253.48;;;22.23;30.39
76827;BME280;65788;52.284;20.890;2023-04-03T12:29:27;101244.02;;;22.16;30.41
76827;BME280;65788;52.284;20.890;2023-04-03T12:34:44;101248.51;;;22.32;30.24
76827;BME280;65788;52.284;20.890;2023-04-03T12:37:30;101255.67;;;22.22;30.23
76827;BME280;65788;52.284;20.890;2023-04-03T12:43:27;101252.87;;;22.05;30.63
76827;BME280;65788;52.284;20.890;2023-04-03T12:46:04;101250.44;;;22.12;30.46
76827;BME280;65788;52.284;20.890;2023-04-03T12:48:51;101247.20;;;22.16;30.41
76827;BME280;65788;52.284;20.890;2023-04-03T12:51:21;101253.88;;;22.20;30.45
76827;BME280;65788;52.284;20.890;2023-04-03T12:54:00;101254.74;;;22.29;30.41
76827;BME280;65788;52.284;20.890;2023-04-03T12:56:31;101251.65;;;22.31;30.11
76827;BME280;65788;52.284;20.890;2023-04-03T12:59:22;101245.20;;;22.31;30.19
76827;BME280;65788;52.284;20.890;2023-04-03T13:01:58;101244.78;;;22.29;30.25
76827;BME280;65788;52.284;20.890;2023-04-03T13:04:31;101251.20;;;22.14;30.45
76827;BME280;65788;52.284;20.890;2023-04-03T13:06:58;101259.77;;;22.06;30.36
76827;BME280;65788;52.284;20.890;2023-04-03T13:09:26;101257.91;;;21.96;30.71
76827;BME280;65788;52.284;20.890;2023-04-03T13:12:00;101251.68;;;21.98;30.80
76827;BME280;65788;52.284;20.890;2023-04-03T13:14:28;101250.41;;;21.91;31.00
76827;BME280;65788;52.284;20.890;2023-04-03T13:19:31;101247.00;;;21.86;31.02
76827;BME280;65788;52.284;20.890;2023-04-03T13:24:48;101254.06;;;21.74;31.16
76827;BME280;65788;52.284;20.890;2023-04-03T13:27:17;101252.66;;;21.67;31.16
76827;BME280;65788;52.284;20.890;2023-04-03T13:29:49;101248.90;;;21.62;31.17
76827;BME280;65788;52.284;20.890;2023-04-03T13:32:23;101243.33;;;21.66;31.08
76827;BME280;65788;52.284;20.890;2023-04-03T13:34:50;101242.04;;;21.69;31.10
76827;BME280;65788;52.284;20.890;2023-04-03T13:37:27;101247.80;;;21.81;30.79
76827;BME280;65788;52.284;20.890;2023-04-03T13:40:09;101244.98;;;21.80;30.78
76827;BME280;65788;52.284;20.890;2023-04-03T13:42:41;101245.91;;;21.78;30.90
76827;BME280;65788;52.284;20.890;2023-04-03T13:45:19;101244.50;;;21.78;30.80
76827;BME280;65788;52.284;20.890;2023-04-03T13:47:52;101242.69;;;21.79;30.79
76827;BME280;65788;52.284;20.890;2023-04-03T13:50:25;101244.14;;;21.86;30.72
76827;BME280;65788;52.284;20.890;2023-04-03T13:53:11;101235.36;;;21.95;31.15
76827;BME280;65788;52.284;20.890;2023-04-03T13:56:04;101237.69;;;21.93;30.49
76827;BME280;65788;52.284;20.890;2023-04-03T13:58:35;101237.10;;;21.91;30.48
76827;BME280;65788;52.284;20.890;2023-04-03T14:03:42;101235.57;;;21.83;30.68
76827;BME280;65788;52.284;20.890;2023-04-03T14:06:13;101239.35;;;21.83;30.80
76827;BME280;65788;52.284;20.890;2023-04-03T14:08:43;101237.41;;;21.86;30.82
76827;BME280;65788;52.284;20.890;2023-04-03T14:11:24;101238.29;;;21.80;30.65
76827;BME280;65788;52.284;20.890;2023-04-03T14:13:51;101234.11;;;21.85;30.66
76827;BME280;65788;52.284;20.890;2023-04-03T14:16:22;101235.36;;;21.83;31.09
76827;BME280;65788;52.284;20.890;2023-04-03T14:18:50;101231.36;;;21.84;30.45
76827;BME280;65788;52.284;20.890;2023-04-03T14:21:21;101234.98;;;21.81;30.40
76827;BME280;65788;52.284;20.890;2023-04-03T14:23:50;101239.06;;;21.73;30.67
76827;BME280;65788;52.284;20.890;2023-04-03T14:26:20;101241.11;;;21.75;30.84
76827;BME280;65788;52.284;20.890;2023-04-03T14:28:51;101241.92;;;21.60;30.83
76827;BME280;65788;52.284;20.890;2023-04-03T14:31:19;101238.70;;;21.50;31.25